createdAt,value
2022-09-06T00:00:15.215Z,83.33
2022-09-06T00:02:43.703Z,83.17
2022-09-06T00:05:12.269Z,83.16
2022-09-06T00:07:39.386Z,83.36
2022-09-06T00:10:06.769Z,82.98
2022-09-06T00:12:33.996Z,82.97
2022-09-06T00:15:01.162Z,83.11
2022-09-06T00:17:28.702Z,83.08
2022-09-06T00:19:55.759Z,82.75
2022-09-06T00:22:22.744Z,82.65
2022-09-06T00:24:49.782Z,82.78
2022-09-06T00:27:16.948Z,82.83
2022-09-06T00:29:44.004Z,83.19
2022-09-06T00:32:11.030Z,83.28
2022-09-06T00:34:38.170Z,83.44
2022-09-06T00:37:05.485Z,83.67
2022-09-06T00:39:32.545Z,84.02
2022-09-06T00:41:59.605Z,84.41
2022-09-06T00:44:26.573Z,84.68
2022-09-06T00:46:54.541Z,84.74
2022-09-06T00:49:28.852Z,85.24
2022-09-06T00:51:59.688Z,85.12
2022-09-06T00:54:27.176Z,85.28
2022-09-06T00:56:54.968Z,84.71
2022-09-06T00:59:22.372Z,84.71
2022-09-06T01:01:49.386Z,84.49
2022-09-06T01:04:16.482Z,84.27
2022-09-06T01:06:52.692Z,84.23
2022-09-06T01:09:38.555Z,84.16
2022-09-06T01:12:23.208Z,84.06
2022-09-06T01:15:33.553Z,83.80
2022-09-06T01:18:12.752Z,83.95
2022-09-06T01:21:06.139Z,83.62
2022-09-06T01:24:02.758Z,83.60
2022-09-06T01:27:10.869Z,84.13
2022-09-06T01:29:48.805Z,84.03
2022-09-06T01:32:37.869Z,84.46
2022-09-06T01:35:10.695Z,84.81
2022-09-06T01:37:37.907Z,84.83
2022-09-06T01:40:05.620Z,84.71
2022-09-06T01:42:33.810Z,84.61
2022-09-06T01:45:08.367Z,84.79
2022-09-06T01:47:54.032Z,84.98
2022-09-06T01:50:42.417Z,84.75
2022-09-06T01:53:36.536Z,84.66
2022-09-06T01:56:35.776Z,84.45
2022-09-06T01:59:22.353Z,84.25
2022-09-06T02:01:49.386Z,84.12
2022-09-06T02:04:29.085Z,84.54
2022-09-06T02:07:09.221Z,84.70
2022-09-06T02:09:38.632Z,84.50
2022-09-06T02:12:06.108Z,84.34
2022-09-06T02:15:32.220Z,83.96
2022-09-06T02:18:07.003Z,83.87
2022-09-06T02:20:35.507Z,83.86
2022-09-06T02:23:05.073Z,83.67
2022-09-06T02:25:36.025Z,83.42
2022-09-06T02:28:03.364Z,83.62
2022-09-06T02:30:30.469Z,83.54
2022-09-06T02:33:00.407Z,83.70
2022-09-06T02:35:28.029Z,83.77
2022-09-06T02:37:56.344Z,83.52
2022-09-06T02:40:23.771Z,83.58
2022-09-06T02:42:50.933Z,83.92
2022-09-06T02:45:17.868Z,84.03
2022-09-06T02:47:44.814Z,84.07
2022-09-06T02:50:13.375Z,84.36
2022-09-06T02:52:40.339Z,84.53
2022-09-06T02:55:07.930Z,84.36
2022-09-06T02:57:35.500Z,84.26
2022-09-06T03:00:04.400Z,83.75
2022-09-06T03:02:31.427Z,83.54
2022-09-06T03:04:58.696Z,83.59
2022-09-06T03:07:25.655Z,83.37
2022-09-06T03:09:52.647Z,83.06
2022-09-06T03:12:19.672Z,82.78
2022-09-06T03:14:46.640Z,82.92
2022-09-06T03:17:13.605Z,82.86
2022-09-06T03:19:40.811Z,82.89
2022-09-06T03:22:07.753Z,82.52
2022-09-06T03:24:34.841Z,82.68
2022-09-06T03:27:01.980Z,82.15
2022-09-06T03:29:28.979Z,82.09
2022-09-06T03:32:03.112Z,81.76
2022-09-06T03:34:32.657Z,81.16
2022-09-06T03:36:59.560Z,81.13
2022-09-06T03:39:26.684Z,80.77
2022-09-06T03:41:53.781Z,80.64
2022-09-06T03:44:25.417Z,80.52
2022-09-06T03:46:53.280Z,80.42
2022-09-06T03:49:20.326Z,80.12
2022-09-06T03:51:47.316Z,80.30
2022-09-06T03:54:15.268Z,80.28
2022-09-06T03:56:42.275Z,80.32
2022-09-06T03:59:09.344Z,80.26
2022-09-06T04:01:36.352Z,80.44
2022-09-06T04:04:03.561Z,80.30
2022-09-06T04:06:30.539Z,80.11
2022-09-06T04:09:00.887Z,80.49
2022-09-06T04:11:28.483Z,80.62
2022-09-06T04:13:55.550Z,80.32
2022-09-06T04:16:22.698Z,80.75
2022-09-06T04:18:49.841Z,81.00
2022-09-06T04:21:16.877Z,80.45
2022-09-06T04:23:43.966Z,80.62
2022-09-06T04:26:11.055Z,80.50
2022-09-06T04:28:38.546Z,80.44
2022-09-06T04:31:06.169Z,80.29
2022-09-06T04:33:36.149Z,80.02
2022-09-06T04:36:08.558Z,79.95
2022-09-06T04:38:41.075Z,79.72
2022-09-06T04:41:10.936Z,79.69
2022-09-06T04:43:38.890Z,79.67
2022-09-06T04:46:30.894Z,79.29
2022-09-06T04:48:58.674Z,79.49
2022-09-06T04:51:26.491Z,79.40
2022-09-06T04:53:53.800Z,78.76
2022-09-06T04:56:25.741Z,78.91
2022-09-06T04:58:54.784Z,78.39
2022-09-06T05:01:22.165Z,77.47
2022-09-06T05:03:49.532Z,77.47
2022-09-06T05:06:24.730Z,77.62
2022-09-06T05:08:54.680Z,77.53
2022-09-06T05:11:23.134Z,77.88
2022-09-06T05:13:50.474Z,77.51
2022-09-06T05:16:18.767Z,76.92
2022-09-06T05:18:45.794Z,76.80
2022-09-06T05:21:13.828Z,75.85
2022-09-06T05:23:40.766Z,75.93
2022-09-06T05:26:07.934Z,75.92
2022-09-06T05:28:36.691Z,75.12
2022-09-06T05:31:07.893Z,74.39
2022-09-06T05:33:35.311Z,72.93
2022-09-06T05:36:04.287Z,71.08
2022-09-06T05:38:31.638Z,71.73
2022-09-06T05:40:58.768Z,72.51
2022-09-06T05:43:25.819Z,73.35
2022-09-06T05:45:54.115Z,73.67
2022-09-06T05:48:21.462Z,73.90
2022-09-06T05:50:48.598Z,74.32
2022-09-06T05:53:15.716Z,74.73
2022-09-06T05:55:43.244Z,74.28
2022-09-06T05:58:10.348Z,74.02
2022-09-06T06:00:37.586Z,74.01
2022-09-06T06:03:04.875Z,72.87
2022-09-06T06:05:33.056Z,72.52
2022-09-06T06:08:04.536Z,72.55
2022-09-06T06:10:34.366Z,71.78
2022-09-06T06:13:05.260Z,70.86
2022-09-06T06:15:38.179Z,71.06
2022-09-06T06:18:10.745Z,71.16
2022-09-06T06:20:37.786Z,71.14
2022-09-06T06:23:05.139Z,70.38
2022-09-06T06:25:32.176Z,70.78
2022-09-06T06:28:00.038Z,70.75
2022-09-06T06:30:27.417Z,71.57
2022-09-06T06:32:54.839Z,71.16
2022-09-06T06:35:21.950Z,71.12
2022-09-06T06:37:49.111Z,70.63
2022-09-06T06:40:16.429Z,70.01
2022-09-06T06:42:46.628Z,70.06
2022-09-06T06:45:16.268Z,69.23
2022-09-06T06:47:43.300Z,68.94
2022-09-06T06:50:10.609Z,66.88
2022-09-06T06:52:37.852Z,66.80
2022-09-06T06:55:21.381Z,65.92
2022-09-06T06:57:48.613Z,66.07
2022-09-06T07:00:15.827Z,65.64
2022-09-06T07:02:42.815Z,65.76
2022-09-06T07:08:00.227Z,63.55
2022-09-06T07:10:35.166Z,62.15
2022-09-06T07:13:07.500Z,62.25
2022-09-06T07:15:35.395Z,62.99
2022-09-06T07:26:27.255Z,65.60
2022-09-06T07:29:00.451Z,65.08
2022-09-06T07:34:18.332Z,64.25
2022-09-06T07:36:45.499Z,63.57
2022-09-06T07:39:12.456Z,62.75
2022-09-06T07:41:39.780Z,62.38
2022-09-06T07:44:06.907Z,61.12
2022-09-06T07:46:38.361Z,61.23
2022-09-06T07:49:07.016Z,60.76
2022-09-06T07:51:34.156Z,61.31
2022-09-06T07:54:26.343Z,60.10
2022-09-06T07:56:48.687Z,60.53
2022-09-06T07:59:15.965Z,60.22
2022-09-06T08:01:43.159Z,60.03
2022-09-06T08:04:15.055Z,60.93
2022-09-06T08:09:33.298Z,58.72
2022-09-06T08:12:09.000Z,59.00
2022-09-06T08:14:36.518Z,59.58
2022-09-06T08:17:48.542Z,59.21
2022-09-06T08:20:38.539Z,59.60
2022-09-06T08:23:14.057Z,59.09
2022-09-06T08:25:42.067Z,58.30
2022-09-06T08:28:09.781Z,57.65
2022-09-06T08:30:41.645Z,57.95
2022-09-06T08:33:09.297Z,59.35
2022-09-06T08:35:37.019Z,60.25
2022-09-06T08:40:50.832Z,61.64
2022-09-06T08:46:12.806Z,58.89
2022-09-06T08:48:40.685Z,57.99
2022-09-06T08:51:38.552Z,58.31
2022-09-06T08:54:12.084Z,58.89
2022-09-06T08:56:48.699Z,61.86
2022-09-06T08:59:18.450Z,63.34
2022-09-06T09:02:10.172Z,61.11
2022-09-06T09:04:45.271Z,56.86
2022-09-06T09:07:29.520Z,55.62
2022-09-06T09:09:57.997Z,54.92
2022-09-06T09:12:25.592Z,55.80
2022-09-06T09:14:57.636Z,55.19
2022-09-06T09:17:30.170Z,56.95
2022-09-06T09:19:57.253Z,58.98
2022-09-06T09:22:25.595Z,62.33
2022-09-06T09:24:54.525Z,63.14
2022-09-06T09:27:32.214Z,63.35
2022-09-06T09:32:54.301Z,62.91
2022-09-06T09:35:37.388Z,58.48
2022-09-06T09:38:12.029Z,55.17
2022-09-06T09:40:59.279Z,54.83
2022-09-06T09:43:41.552Z,51.45
2022-09-06T09:46:30.394Z,50.40
2022-09-06T09:49:08.408Z,50.91
2022-09-06T09:51:46.752Z,51.16
2022-09-06T09:54:17.804Z,52.97
2022-09-06T09:59:46.113Z,55.75
2022-09-06T10:02:28.526Z,57.60
2022-09-06T10:05:14.825Z,59.09
2022-09-06T10:07:50.702Z,60.21
2022-09-06T10:10:22.615Z,59.85
2022-09-06T10:13:21.900Z,59.06
2022-09-06T10:15:50.855Z,57.02
2022-09-06T10:18:20.719Z,56.00
2022-09-06T10:20:54.748Z,55.45
2022-09-06T10:26:13.444Z,58.37
2022-09-06T10:28:45.586Z,60.50
2022-09-06T10:31:24.521Z,61.73
2022-09-06T10:33:54.731Z,61.92
2022-09-06T10:39:33.388Z,62.94
2022-09-06T10:42:11.147Z,63.49
2022-09-06T10:44:50.565Z,63.26
2022-09-06T10:47:18.531Z,61.58
2022-09-06T10:49:49.712Z,59.26
2022-09-06T10:52:27.448Z,56.98
2022-09-06T10:54:58.167Z,56.64
2022-09-06T11:00:19.042Z,54.79
2022-09-06T11:05:53.616Z,53.96
2022-09-06T11:11:27.184Z,54.33
2022-09-06T11:14:02.547Z,56.28
2022-09-06T11:16:40.096Z,57.35
2022-09-06T11:19:17.877Z,57.31
2022-09-06T11:22:19.696Z,57.01
2022-09-06T11:24:52.799Z,56.60
2022-09-06T11:27:36.016Z,54.75
2022-09-06T11:32:50.957Z,52.79
2022-09-06T11:35:32.265Z,52.93
2022-09-06T11:38:16.144Z,52.19
2022-09-06T11:40:45.799Z,53.24
2022-09-06T11:43:16.477Z,53.91
2022-09-06T11:45:50.721Z,55.64
2022-09-06T11:48:23.708Z,56.94
2022-09-06T11:50:53.611Z,57.52
2022-09-06T11:53:22.210Z,57.34
2022-09-06T11:56:15.697Z,57.36
2022-09-06T11:58:45.477Z,57.68
2022-09-06T12:01:12.453Z,57.87
2022-09-06T12:04:04.935Z,57.61
2022-09-06T12:06:37.667Z,58.04
2022-09-06T12:09:46.438Z,58.04
2022-09-06T12:12:44.671Z,57.26
2022-09-06T12:15:26.687Z,58.55
2022-09-06T12:17:54.138Z,58.84
2022-09-06T12:20:48.890Z,59.50
2022-09-06T12:23:34.393Z,59.13
2022-09-06T12:26:08.905Z,59.56
2022-09-06T12:28:41.186Z,59.73
2022-09-06T12:31:28.927Z,59.25
2022-09-06T12:33:57.796Z,59.17
2022-09-06T12:36:30.584Z,59.96
2022-09-06T12:39:07.911Z,60.69
2022-09-06T12:42:03.706Z,60.68
2022-09-06T12:44:34.039Z,60.92
2022-09-06T12:50:15.228Z,61.11
2022-09-06T12:53:00.355Z,60.78
2022-09-06T12:55:38.675Z,60.29
2022-09-06T12:58:11.643Z,59.59
2022-09-06T13:00:49.019Z,58.47
2022-09-06T13:03:37.357Z,58.78
2022-09-06T13:06:05.726Z,58.33
2022-09-06T13:08:40.169Z,58.11
2022-09-06T13:11:11.564Z,58.53
2022-09-06T13:13:47.149Z,59.22
2022-09-06T13:16:25.976Z,59.02
2022-09-06T13:18:53.657Z,59.43
2022-09-06T13:21:30.143Z,57.87
2022-09-06T13:23:59.267Z,58.25
2022-09-06T13:26:34.401Z,59.09
2022-09-06T13:29:16.950Z,57.21
2022-09-06T13:31:46.309Z,56.72
2022-09-06T13:34:27.548Z,58.20
2022-09-06T13:37:06.365Z,58.32
2022-09-06T13:39:38.363Z,58.65
2022-09-06T13:42:07.514Z,59.00
2022-09-06T13:44:36.344Z,59.78
2022-09-06T13:47:04.415Z,61.87
2022-09-06T13:49:31.807Z,61.89
2022-09-06T13:52:02.093Z,60.66
2022-09-06T13:54:32.697Z,59.32
2022-09-06T13:57:10.873Z,60.35
2022-09-06T13:59:38.558Z,60.00
2022-09-06T14:02:08.547Z,60.73
2022-09-06T14:04:36.829Z,59.72
2022-09-06T14:07:05.334Z,58.71
2022-09-06T14:09:32.830Z,58.40
2022-09-06T14:12:34.666Z,58.79
2022-09-06T14:15:02.016Z,59.30
2022-09-06T14:17:30.756Z,59.56
2022-09-06T14:19:57.936Z,60.11
2022-09-06T14:22:25.122Z,59.42
2022-09-06T14:24:52.353Z,59.85
2022-09-06T14:27:19.606Z,58.97
2022-09-06T14:29:46.621Z,59.51
2022-09-06T14:32:13.740Z,59.41
2022-09-06T14:34:41.063Z,59.50
2022-09-06T14:37:12.841Z,59.19
2022-09-06T14:40:24.406Z,58.36
2022-09-06T14:42:51.608Z,58.73
2022-09-06T14:45:19.958Z,58.45
2022-09-06T14:47:47.062Z,58.52
2022-09-06T14:50:14.149Z,57.31
2022-09-06T14:52:44.237Z,57.91
2022-09-06T14:55:11.592Z,57.61
2022-09-06T14:57:38.649Z,58.05
2022-09-06T15:00:08.729Z,58.24
2022-09-06T15:02:36.433Z,58.18
2022-09-06T15:05:08.339Z,58.12
2022-09-06T15:07:35.453Z,58.51
2022-09-06T15:10:03.435Z,58.54
2022-09-06T15:12:30.939Z,58.17
2022-09-06T15:14:57.919Z,58.64
2022-09-06T15:17:25.624Z,58.32
2022-09-06T15:19:54.436Z,58.58
2022-09-06T15:22:21.399Z,58.46
2022-09-06T15:24:55.329Z,58.45
2022-09-06T15:27:22.796Z,58.21
2022-09-06T15:29:49.772Z,58.36
2022-09-06T15:32:17.091Z,58.47
2022-09-06T15:34:44.110Z,58.63
2022-09-06T15:37:11.361Z,58.17
2022-09-06T15:39:38.528Z,58.31
2022-09-06T15:42:06.909Z,58.33
2022-09-06T15:44:35.241Z,58.39
2022-09-06T15:47:02.632Z,58.44
2022-09-06T15:49:32.050Z,58.72
2022-09-06T15:52:01.157Z,58.57
2022-09-06T15:54:47.681Z,58.82
2022-09-06T15:57:16.612Z,59.13
2022-09-06T15:59:44.174Z,59.13
2022-09-06T16:02:12.022Z,59.30
2022-09-06T16:04:39.944Z,59.65
2022-09-06T16:07:07.381Z,59.74
2022-09-06T16:09:34.669Z,59.75
2022-09-06T16:12:01.894Z,59.87
2022-09-06T16:14:29.295Z,59.96
2022-09-06T16:16:57.543Z,60.51
2022-09-06T16:19:26.217Z,60.61
2022-09-06T16:21:53.713Z,60.74
2022-09-06T16:24:21.524Z,61.03
2022-09-06T16:26:48.777Z,61.15
2022-09-06T16:29:18.197Z,61.44
2022-09-06T16:31:46.031Z,61.87
2022-09-06T16:34:13.835Z,61.75
2022-09-06T16:36:41.433Z,62.02
2022-09-06T16:39:08.939Z,62.41
2022-09-06T16:41:44.286Z,62.67
2022-09-06T16:44:17.439Z,62.55
2022-09-06T16:46:46.697Z,62.45
2022-09-06T16:49:17.129Z,62.09
2022-09-06T16:51:44.733Z,62.05
2022-09-06T16:54:11.788Z,62.59
2022-09-06T16:56:39.631Z,62.67
2022-09-06T16:59:08.357Z,62.87
2022-09-06T17:01:36.690Z,63.31
2022-09-06T17:04:04.623Z,63.55
2022-09-06T17:06:38.563Z,63.95
2022-09-06T17:09:05.719Z,64.19
2022-09-06T17:11:32.762Z,64.34
2022-09-06T17:14:11.135Z,64.57
2022-09-06T17:16:56.498Z,64.77
2022-09-06T17:19:23.656Z,64.67
2022-09-06T17:21:50.834Z,64.88
2022-09-06T17:24:19.126Z,65.01
2022-09-06T17:26:46.293Z,65.01
2022-09-06T17:29:13.374Z,65.03
2022-09-06T17:31:40.553Z,64.77
2022-09-06T17:34:07.899Z,64.92
2022-09-06T17:36:35.989Z,64.88
2022-09-06T17:39:09.811Z,64.90
2022-09-06T17:41:39.908Z,64.73
2022-09-06T17:44:14.347Z,64.25
2022-09-06T17:46:57.145Z,64.39
2022-09-06T17:49:30.348Z,64.22
2022-09-06T17:51:58.587Z,64.09
2022-09-06T17:54:25.729Z,64.28
2022-09-06T17:56:52.802Z,64.55
2022-09-06T17:59:23.896Z,64.35
2022-09-06T18:01:50.988Z,64.46
2022-09-06T18:04:18.169Z,64.61
2022-09-06T18:06:46.917Z,64.21
2022-09-06T18:09:16.945Z,64.77
2022-09-06T18:11:47.171Z,64.85
2022-09-06T18:14:17.558Z,64.79
2022-09-06T18:16:47.232Z,65.01
2022-09-06T18:19:19.928Z,65.30
2022-09-06T18:21:47.478Z,65.00
2022-09-06T18:24:15.081Z,65.19
2022-09-06T18:26:43.197Z,65.19
2022-09-06T18:29:13.248Z,65.37
2022-09-06T18:31:41.495Z,65.35
2022-09-06T18:34:09.421Z,65.68
2022-09-06T18:36:37.772Z,65.44
2022-09-06T18:39:05.539Z,65.44
2022-09-06T18:41:52.031Z,65.36
2022-09-06T18:44:19.238Z,65.37
2022-09-06T18:46:54.014Z,65.48
2022-09-06T18:49:27.589Z,65.42
2022-09-06T18:51:54.923Z,65.56
2022-09-06T18:54:22.081Z,65.71
2022-09-06T18:56:50.295Z,66.13
2022-09-06T18:59:17.538Z,66.03
2022-09-06T19:01:44.893Z,65.94
2022-09-06T19:04:12.391Z,65.94
2022-09-06T19:06:41.135Z,66.02
2022-09-06T19:09:10.894Z,66.02
2022-09-06T19:11:38.045Z,66.12
2022-09-06T19:14:06.888Z,66.23
2022-09-06T19:16:34.390Z,66.42
2022-09-06T19:19:07.744Z,66.59
2022-09-06T19:21:40.806Z,66.15
2022-09-06T19:24:10.444Z,66.66
2022-09-06T19:26:39.639Z,66.46
2022-09-06T19:29:09.168Z,66.30
2022-09-06T19:31:37.776Z,66.34
2022-09-06T19:34:05.709Z,66.19
2022-09-06T19:36:34.716Z,66.32
2022-09-06T19:39:06.833Z,66.45
2022-09-06T19:41:37.134Z,66.58
2022-09-06T19:44:09.124Z,66.47
2022-09-06T19:46:37.452Z,66.46
2022-09-06T19:49:05.523Z,66.24
2022-09-06T19:51:36.674Z,66.44
2022-09-06T19:54:04.207Z,66.65
2022-09-06T19:56:34.402Z,66.59
2022-09-06T19:59:07.694Z,66.80
2022-09-06T20:01:36.398Z,66.77
2022-09-06T20:04:05.245Z,67.17
2022-09-06T20:06:41.600Z,66.91
2022-09-06T20:09:12.340Z,67.18
2022-09-06T20:11:49.745Z,67.04
2022-09-06T20:14:17.016Z,67.18
2022-09-06T20:16:44.172Z,67.18
2022-09-06T20:19:12.732Z,67.07
2022-09-06T20:21:40.336Z,66.96
2022-09-06T20:24:07.709Z,66.81
2022-09-06T20:26:34.769Z,67.03
2022-09-06T20:29:02.819Z,66.89
2022-09-06T20:31:31.383Z,67.10
2022-09-06T20:34:00.120Z,66.93
2022-09-06T20:36:27.760Z,66.80
2022-09-06T20:38:55.556Z,66.60
2022-09-06T20:41:24.826Z,67.05
2022-09-06T20:43:53.746Z,66.78
2022-09-06T20:46:23.607Z,66.81
2022-09-06T20:51:34.095Z,66.81
2022-09-06T20:54:04.969Z,66.64
2022-09-06T20:56:34.500Z,66.82
2022-09-06T20:59:03.696Z,66.48
2022-09-06T21:01:34.805Z,66.63
2022-09-06T21:04:03.392Z,66.65
2022-09-06T21:06:33.839Z,66.95
2022-09-06T21:09:01.253Z,66.56
2022-09-06T21:11:30.262Z,66.55
2022-09-06T21:13:59.299Z,66.66
2022-09-06T21:16:30.735Z,67.11
2022-09-06T21:18:59.829Z,67.12
2022-09-06T21:21:28.765Z,67.12
2022-09-06T21:23:56.227Z,66.93
2022-09-06T21:26:23.408Z,67.22
2022-09-06T21:28:50.680Z,67.11
2022-09-06T21:31:28.835Z,67.05
2022-09-06T21:33:57.829Z,67.03
2022-09-06T21:36:30.683Z,66.93
2022-09-06T21:38:59.404Z,67.11
2022-09-06T21:41:41.131Z,67.21
2022-09-06T21:44:11.832Z,67.19
2022-09-06T21:46:41.110Z,67.36
2022-09-06T21:49:13.508Z,67.38
2022-09-06T21:51:41.132Z,67.48
2022-09-06T21:54:08.776Z,67.41
2022-09-06T21:56:37.307Z,67.40
2022-09-06T21:59:05.261Z,67.33
2022-09-06T22:01:34.184Z,67.34
2022-09-06T22:04:02.509Z,67.62
2022-09-06T22:06:31.287Z,67.71
2022-09-06T22:09:00.192Z,67.82
2022-09-06T22:11:29.629Z,67.76
2022-09-06T22:14:01.424Z,68.21
2022-09-06T22:16:29.489Z,68.26
2022-09-06T22:18:56.646Z,68.38
2022-09-06T22:21:24.608Z,68.65
2022-09-06T22:23:59.466Z,68.84
2022-09-06T22:26:26.962Z,68.98
2022-09-06T22:29:12.012Z,69.42
2022-09-06T22:31:39.618Z,69.40
2022-09-06T22:34:07.291Z,69.22
2022-09-06T22:36:34.970Z,69.58
2022-09-06T22:39:02.053Z,70.02
2022-09-06T22:41:30.910Z,70.61
2022-09-06T22:44:00.216Z,70.78
2022-09-06T22:46:27.853Z,70.93
2022-09-06T22:48:55.489Z,70.94
2022-09-06T22:51:22.532Z,71.05
2022-09-06T22:53:49.650Z,71.16
2022-09-06T22:56:16.801Z,71.12
2022-09-06T22:58:43.835Z,70.88
2022-09-06T23:01:13.142Z,71.10
2022-09-06T23:03:41.977Z,71.07
2022-09-06T23:06:09.533Z,71.29
2022-09-06T23:08:38.739Z,71.77
2022-09-06T23:11:08.084Z,72.17
2022-09-06T23:13:35.350Z,72.68
2022-09-06T23:16:17.718Z,73.13
2022-09-06T23:18:45.992Z,73.54
2022-09-06T23:21:18.388Z,73.94
2022-09-06T23:23:46.583Z,74.20
2022-09-06T23:26:16.544Z,74.35
2022-09-06T23:28:43.764Z,75.07
2022-09-06T23:31:13.568Z,75.43
2022-09-06T23:33:41.922Z,76.07
2022-09-06T23:36:11.760Z,76.28
2022-09-06T23:38:40.343Z,76.77
2022-09-06T23:41:08.844Z,76.93
2022-09-06T23:43:37.732Z,76.92
2022-09-06T23:46:05.287Z,76.97
2022-09-06T23:48:32.577Z,77.29
2022-09-06T23:50:59.587Z,77.14
2022-09-06T23:53:26.764Z,77.17
2022-09-06T23:55:53.966Z,77.15
2022-09-06T23:58:20.954Z,77.49
